createdAt,value
2019-04-05T00:01:29.341Z,56.60
2019-04-05T00:03:04.896Z,57.10
2019-04-05T00:04:40.419Z,57.20
2019-04-05T00:06:15.978Z,57.90
2019-04-05T00:07:51.519Z,57.30
2019-04-05T00:09:27.128Z,57.30
2019-04-05T00:11:02.804Z,57.30
2019-04-05T00:12:38.341Z,57.50
2019-04-05T00:14:13.874Z,57.90
2019-04-05T00:15:49.452Z,57.70
2019-04-05T00:17:24.990Z,57.50
2019-04-05T00:19:00.527Z,57.70
2019-04-05T00:20:36.115Z,58.30
2019-04-05T00:22:11.656Z,58.90
2019-04-05T00:23:47.197Z,58.50
2019-04-05T00:25:22.717Z,58.30
2019-04-05T00:26:58.518Z,58.60
2019-04-05T00:28:34.056Z,59.30
2019-04-05T00:30:11.792Z,59.40
2019-04-05T00:31:47.353Z,59.50
2019-04-05T00:33:22.879Z,59.80
2019-04-05T00:34:58.809Z,59.90
2019-04-05T00:36:35.326Z,59.70
2019-04-05T00:38:10.883Z,59.80
2019-04-05T00:39:46.418Z,59.80
2019-04-05T00:41:21.961Z,60.00
2019-04-05T00:42:57.496Z,60.00
2019-04-05T00:44:33.044Z,60.30
2019-04-05T00:46:08.590Z,60.20
2019-04-05T00:47:44.122Z,60.30
2019-04-05T00:49:19.662Z,60.30
2019-04-05T00:50:55.185Z,60.30
2019-04-05T00:52:30.720Z,60.30
2019-04-05T00:54:07.346Z,60.30
2019-04-05T00:55:42.875Z,60.40
2019-04-05T00:57:18.444Z,60.50
2019-04-05T00:58:53.969Z,60.30
2019-04-05T01:00:29.584Z,60.20
2019-04-05T01:02:05.285Z,60.80
2019-04-05T01:03:40.847Z,60.50
2019-04-05T01:05:16.365Z,60.50
2019-04-05T01:06:51.906Z,60.60
2019-04-05T01:08:27.462Z,60.60
2019-04-05T01:10:03.022Z,60.80
2019-04-05T01:11:38.612Z,60.70
2019-04-05T01:13:14.150Z,60.60
2019-04-05T01:14:50.167Z,60.60
2019-04-05T01:16:25.778Z,61.10
2019-04-05T01:18:01.467Z,61.30
2019-04-05T01:19:38.555Z,61.10
2019-04-05T01:21:18.832Z,61.40
2019-04-05T01:22:55.087Z,61.90
2019-04-05T01:24:30.729Z,61.50
2019-04-05T01:26:06.718Z,61.80
2019-04-05T01:27:42.592Z,61.90
2019-04-05T01:29:18.681Z,61.80
2019-04-05T01:30:54.275Z,61.80
2019-04-05T01:32:29.826Z,61.80
2019-04-05T01:34:06.394Z,61.80
2019-04-05T01:35:41.944Z,61.70
2019-04-05T01:37:17.841Z,61.80
2019-04-05T01:38:53.379Z,61.90
2019-04-05T01:40:31.996Z,62.00
2019-04-05T01:42:08.391Z,61.80
2019-04-05T01:43:44.333Z,61.70
2019-04-05T01:45:20.527Z,61.90
2019-04-05T01:46:56.118Z,61.70
2019-04-05T01:48:31.653Z,61.50
2019-04-05T01:50:09.447Z,61.80
2019-04-05T01:51:45.094Z,61.50
2019-04-05T01:53:20.714Z,61.30
2019-04-05T01:54:56.275Z,61.50
2019-04-05T01:56:31.821Z,61.80
2019-04-05T01:58:08.156Z,61.60
2019-04-05T01:59:43.712Z,61.50
2019-04-05T02:01:19.319Z,61.40
2019-04-05T02:02:55.406Z,61.40
2019-04-05T02:04:30.974Z,61.40
2019-04-05T02:06:06.510Z,61.40
2019-04-05T02:07:42.327Z,61.90
2019-04-05T02:09:17.848Z,61.50
2019-04-05T02:10:53.556Z,61.50
2019-04-05T02:12:30.053Z,61.60
2019-04-05T02:14:05.665Z,61.70
2019-04-05T02:15:41.267Z,61.70
2019-04-05T02:17:16.838Z,61.90
2019-04-05T02:18:52.350Z,61.70
2019-04-05T02:20:27.955Z,61.90
2019-04-05T02:22:03.479Z,61.70
2019-04-05T02:23:39.734Z,61.80
2019-04-05T02:25:15.617Z,61.90
2019-04-05T02:26:51.533Z,61.80
2019-04-05T02:28:27.074Z,61.80
2019-04-05T02:30:02.764Z,61.60
2019-04-05T02:31:38.291Z,61.70
2019-04-05T02:33:14.082Z,61.60
2019-04-05T02:34:49.719Z,61.70
2019-04-05T02:36:25.281Z,61.90
2019-04-05T02:38:00.869Z,61.70
2019-04-05T02:39:36.470Z,62.00
2019-04-05T02:41:12.054Z,62.10
2019-04-05T02:42:50.683Z,62.00
2019-04-05T02:44:27.382Z,62.60
2019-04-05T02:46:03.777Z,62.50
2019-04-05T02:47:42.339Z,62.50
2019-04-05T02:49:18.996Z,62.90
2019-04-05T02:50:57.968Z,62.80
2019-04-05T02:52:34.665Z,62.60
2019-04-05T02:54:11.758Z,62.70
2019-04-05T02:55:48.352Z,62.90
2019-04-05T02:57:24.142Z,63.30
2019-04-05T02:59:00.913Z,64.00
2019-04-05T03:00:36.786Z,63.00
2019-04-05T03:02:12.379Z,63.00
2019-04-05T03:03:47.931Z,63.30
2019-04-05T03:05:24.138Z,63.20
2019-04-05T03:07:00.008Z,63.20
2019-04-05T03:08:35.614Z,63.10
2019-04-05T03:10:32.982Z,63.20
2019-04-05T03:12:08.831Z,63.90
2019-04-05T03:13:51.106Z,63.30
2019-04-05T03:15:26.730Z,63.40
2019-04-05T03:17:02.796Z,63.40
2019-04-05T03:18:43.015Z,63.40
2019-04-05T03:20:19.588Z,63.40
2019-04-05T03:21:59.831Z,63.30
2019-04-05T03:23:39.505Z,63.40
2019-04-05T03:25:16.162Z,63.30
2019-04-05T03:26:56.409Z,63.50
2019-04-05T03:28:34.758Z,63.60
2019-04-05T03:30:10.512Z,63.40
2019-04-05T03:31:46.277Z,63.50
2019-04-05T03:33:22.137Z,63.40
2019-04-05T03:34:57.737Z,63.50
2019-04-05T03:36:33.980Z,63.70
2019-04-05T03:38:09.515Z,63.90
2019-04-05T03:39:45.548Z,64.10
2019-04-05T03:41:21.323Z,64.00
2019-04-05T03:42:56.938Z,64.20
2019-04-05T03:44:32.731Z,64.30
2019-04-05T03:46:08.931Z,64.00
2019-04-05T03:47:44.540Z,64.00
2019-04-05T03:49:21.245Z,63.90
2019-04-05T03:50:57.257Z,64.00
2019-04-05T03:52:32.891Z,64.20
2019-04-05T03:54:08.603Z,64.20
2019-04-05T03:55:44.116Z,64.20
2019-04-05T03:57:19.717Z,64.20
2019-04-05T03:58:55.450Z,64.20
2019-04-05T04:00:31.275Z,63.90
2019-04-05T04:02:06.882Z,64.10
2019-04-05T04:03:43.823Z,64.10
2019-04-05T04:05:19.734Z,64.30
2019-04-05T04:06:55.685Z,64.30
2019-04-05T04:08:31.560Z,64.00
2019-04-05T04:10:10.947Z,64.10
2019-04-05T04:11:46.628Z,64.30
2019-04-05T04:13:22.436Z,64.00
2019-04-05T04:14:59.699Z,64.20
2019-04-05T04:16:35.288Z,64.10
2019-04-05T04:18:10.814Z,64.10
2019-04-05T04:19:46.529Z,64.30
2019-04-05T04:21:50.945Z,64.10
2019-04-05T04:23:30.473Z,64.40
2019-04-05T04:25:06.169Z,64.00
2019-04-05T04:26:42.711Z,64.00
2019-04-05T04:28:18.333Z,64.40
2019-04-05T04:29:53.890Z,64.50
2019-04-05T04:31:29.453Z,64.40
2019-04-05T04:33:06.628Z,64.30
2019-04-05T04:34:42.331Z,64.20
2019-04-05T04:36:17.901Z,63.90
2019-04-05T04:37:53.571Z,63.90
2019-04-05T04:39:29.424Z,63.80
2019-04-05T04:41:05.060Z,63.80
2019-04-05T04:42:40.659Z,63.60
2019-04-05T04:44:16.475Z,63.60
2019-04-05T04:45:52.270Z,63.70
2019-04-05T04:47:28.416Z,63.50
2019-04-05T04:49:04.690Z,63.30
2019-04-05T04:50:40.559Z,63.30
2019-04-05T04:52:16.541Z,63.20
2019-04-05T04:53:52.532Z,63.30
2019-04-05T04:55:28.349Z,63.20
2019-04-05T04:57:04.423Z,63.10
2019-04-05T04:58:40.080Z,63.00
2019-04-05T05:00:16.067Z,63.10
2019-04-05T05:01:51.668Z,63.20
2019-04-05T05:03:40.721Z,63.10
2019-04-05T05:05:25.906Z,63.10
2019-04-05T05:07:09.635Z,63.10
2019-04-05T05:08:52.757Z,63.20
2019-04-05T05:10:28.735Z,63.40
2019-04-05T05:12:05.126Z,63.30
2019-04-05T05:13:40.992Z,63.30
2019-04-05T05:15:18.348Z,63.30
2019-04-05T05:16:54.146Z,63.50
2019-04-05T05:18:29.919Z,63.70
2019-04-05T05:20:07.657Z,63.90
2019-04-05T05:21:43.281Z,63.90
2019-04-05T05:23:20.512Z,63.90
2019-04-05T05:24:56.324Z,63.80
2019-04-05T05:26:31.870Z,63.90
2019-04-05T05:28:08.735Z,63.80
2019-04-05T05:29:44.468Z,63.80
2019-04-05T05:31:20.773Z,63.80
2019-04-05T05:32:56.376Z,63.90
2019-04-05T05:34:32.001Z,64.00
2019-04-05T05:36:10.388Z,64.00
2019-04-05T05:37:44.986Z,64.00
2019-04-05T05:39:20.873Z,63.90
2019-04-05T05:40:56.422Z,64.30
2019-04-05T05:42:32.055Z,64.40
2019-04-05T05:44:07.598Z,64.30
2019-04-05T05:45:43.137Z,64.40
2019-04-05T05:47:18.679Z,64.70
2019-04-05T05:48:54.242Z,64.50
2019-04-05T05:50:29.759Z,64.30
2019-04-05T05:52:05.328Z,64.50
2019-04-05T05:53:40.922Z,64.60
2019-04-05T05:55:16.518Z,64.30
2019-04-05T05:56:53.312Z,64.60
2019-04-05T05:58:28.869Z,64.60
2019-04-05T06:00:07.985Z,64.60
2019-04-05T06:01:43.536Z,64.60
2019-04-05T06:03:19.352Z,64.40
2019-04-05T06:04:54.934Z,64.30
2019-04-05T06:06:30.491Z,64.20
2019-04-05T06:08:06.034Z,64.10
2019-04-05T06:09:41.575Z,64.30
2019-04-05T06:11:17.135Z,64.20
2019-04-05T06:12:52.669Z,64.20
2019-04-05T06:14:28.210Z,64.10
2019-04-05T06:16:03.747Z,64.00
2019-04-05T06:17:39.287Z,64.10
2019-04-05T06:19:14.913Z,63.90
2019-04-05T06:20:51.191Z,63.70
2019-04-05T06:22:26.771Z,63.60
2019-04-05T06:24:05.156Z,63.60
2019-04-05T06:25:39.576Z,63.40
2019-04-05T06:27:15.172Z,63.10
2019-04-05T06:28:51.572Z,63.00
2019-04-05T06:30:28.740Z,62.90
2019-04-05T06:32:04.594Z,62.80
2019-04-05T06:33:40.122Z,62.50
2019-04-05T06:35:15.731Z,62.30
2019-04-05T06:36:51.851Z,62.30
2019-04-05T06:38:27.436Z,62.20
2019-04-05T06:40:03.038Z,62.10
2019-04-05T06:41:38.566Z,62.10
2019-04-05T06:43:14.090Z,62.00
2019-04-05T06:44:49.617Z,62.00
2019-04-05T06:46:25.497Z,62.00
2019-04-05T06:48:01.016Z,61.90
2019-04-05T06:49:36.553Z,61.80
2019-04-05T06:51:12.094Z,61.70
2019-04-05T06:52:47.632Z,61.70
2019-04-05T06:54:23.173Z,61.50
2019-04-05T06:55:59.957Z,61.30
2019-04-05T06:57:35.995Z,61.20
2019-04-05T06:59:12.509Z,61.00
2019-04-05T07:00:56.864Z,60.90
2019-04-05T07:02:25.619Z,60.80
2019-04-05T07:04:01.158Z,60.70
2019-04-05T07:05:36.711Z,60.60
2019-04-05T07:07:12.234Z,60.20
2019-04-05T07:08:53.528Z,59.90
2019-04-05T07:10:25.022Z,59.70
2019-04-05T07:12:00.566Z,59.60
2019-04-05T07:13:36.104Z,59.40
2019-04-05T07:15:11.795Z,59.30
2019-04-05T07:16:48.106Z,59.20
2019-04-05T07:18:33.974Z,59.10
2019-04-05T07:20:01.433Z,59.00
2019-04-05T07:21:36.980Z,58.90
2019-04-05T07:23:12.521Z,58.80
2019-04-05T07:24:49.567Z,58.60
2019-04-05T07:26:25.199Z,58.60
2019-04-05T07:28:00.765Z,58.80
2019-04-05T07:29:36.755Z,58.30
2019-04-05T07:31:12.290Z,58.00
2019-04-05T07:32:47.851Z,57.80
2019-04-05T07:34:24.637Z,57.50
2019-04-05T07:36:03.357Z,57.30
2019-04-05T07:37:37.800Z,57.20
2019-04-05T07:39:13.308Z,57.20
2019-04-05T07:40:48.891Z,57.00
2019-04-05T07:42:25.111Z,56.50
2019-04-05T07:44:00.637Z,56.40
2019-04-05T07:45:36.163Z,56.70
2019-04-05T07:47:11.707Z,56.00
2019-04-05T07:48:47.252Z,55.90
2019-04-05T07:50:23.858Z,56.20
2019-04-05T07:51:59.429Z,56.40
2019-04-05T07:53:34.971Z,56.40
2019-04-05T07:55:11.231Z,56.40
2019-04-05T07:56:46.986Z,56.30
2019-04-05T07:58:22.547Z,56.00
2019-04-05T07:59:58.087Z,56.20
2019-04-05T08:01:33.628Z,55.80
2019-04-05T08:03:09.254Z,55.90
2019-04-05T08:04:44.887Z,55.90
2019-04-05T08:06:20.476Z,55.60
2019-04-05T08:07:56.817Z,55.20
2019-04-05T08:09:33.259Z,54.50
2019-04-05T08:11:08.877Z,54.20
2019-04-05T08:12:44.660Z,53.90
2019-04-05T08:14:21.432Z,54.00
2019-04-05T08:15:56.970Z,53.80
2019-04-05T08:17:32.602Z,53.30
2019-04-05T08:19:08.209Z,52.50
2019-04-05T08:20:43.736Z,51.90
2019-04-05T08:22:19.321Z,51.30
2019-04-05T08:23:54.881Z,50.50
2019-04-05T08:25:30.437Z,50.20
2019-04-05T08:27:06.047Z,50.00
2019-04-05T08:28:41.585Z,49.20
2019-04-05T08:30:17.198Z,48.70
2019-04-05T08:31:53.142Z,47.90
2019-04-05T08:33:28.688Z,47.50
2019-04-05T08:35:05.955Z,46.70
2019-04-05T08:36:42.453Z,47.10
2019-04-05T08:38:18.005Z,47.20
2019-04-05T08:39:53.568Z,47.20
2019-04-05T08:41:29.090Z,47.00
2019-04-05T08:43:04.705Z,47.00
2019-04-05T08:44:40.243Z,46.20
2019-04-05T08:46:15.857Z,45.10
2019-04-05T08:47:51.417Z,44.00
2019-04-05T08:49:27.208Z,44.20
2019-04-05T08:51:02.924Z,43.20
2019-04-05T08:52:38.753Z,42.60
2019-04-05T08:54:14.290Z,42.50
2019-04-05T08:55:49.831Z,42.40
2019-04-05T08:57:25.383Z,42.60
2019-04-05T08:59:00.918Z,42.00
2019-04-05T09:00:36.455Z,42.10
2019-04-05T09:02:11.995Z,42.00
2019-04-05T09:03:47.598Z,41.00
2019-04-05T09:05:23.079Z,40.90
2019-04-05T09:06:58.597Z,40.90
2019-04-05T09:08:34.154Z,40.70
2019-04-05T09:10:09.822Z,40.50
2019-04-05T09:11:45.352Z,40.10
2019-04-05T09:13:20.898Z,39.90
2019-04-05T09:14:56.433Z,40.20
2019-04-05T09:16:32.943Z,39.70
2019-04-05T09:18:08.484Z,39.60
2019-04-05T09:19:44.027Z,39.30
2019-04-05T09:21:20.619Z,39.30
2019-04-05T09:22:56.170Z,39.40
2019-04-05T09:24:31.697Z,39.60
2019-04-05T09:26:07.237Z,39.20
2019-04-05T09:27:42.776Z,39.30
2019-04-05T09:29:18.299Z,39.10
2019-04-05T09:30:53.839Z,39.40
2019-04-05T09:32:29.392Z,39.40
2019-04-05T09:34:06.190Z,39.40
2019-04-05T09:35:41.787Z,39.60
2019-04-05T09:37:18.394Z,39.50
2019-04-05T09:38:53.907Z,40.30
2019-04-05T09:40:29.431Z,40.20
2019-04-05T09:42:05.255Z,40.30
2019-04-05T09:43:40.793Z,40.10
2019-04-05T09:45:16.335Z,40.20
2019-04-05T09:46:51.888Z,39.70
2019-04-05T09:48:28.521Z,39.60
2019-04-05T09:50:07.358Z,39.40
2019-04-05T09:51:42.895Z,40.00
2019-04-05T09:53:18.436Z,39.20
2019-04-05T09:54:53.978Z,39.30
2019-04-05T09:56:29.827Z,39.50
2019-04-05T09:58:05.446Z,39.40
2019-04-05T09:59:41.004Z,39.40
2019-04-05T10:01:16.573Z,39.50
2019-04-05T10:02:52.114Z,39.60
2019-04-05T10:04:27.660Z,39.30
2019-04-05T10:06:03.935Z,38.60
2019-04-05T10:07:53.888Z,38.10
2019-04-05T10:09:16.956Z,38.40
2019-04-05T10:10:52.486Z,38.70
2019-04-05T10:12:28.016Z,38.50
2019-04-05T10:14:04.074Z,38.50
2019-04-05T10:15:39.609Z,38.50
2019-04-05T10:17:15.134Z,38.40
2019-04-05T10:18:51.632Z,38.40
2019-04-05T10:20:27.216Z,38.40
2019-04-05T10:22:03.994Z,37.80
2019-04-05T10:23:39.566Z,37.60
2019-04-05T10:25:16.952Z,37.60
2019-04-05T10:26:52.496Z,37.40
2019-04-05T10:28:28.339Z,37.10
2019-04-05T10:30:10.176Z,36.90
2019-04-05T10:31:45.730Z,36.80
2019-04-05T10:33:21.277Z,37.50
2019-04-05T10:34:56.827Z,36.60
2019-04-05T10:36:32.368Z,35.70
2019-04-05T10:38:07.933Z,35.50
2019-04-05T10:39:43.475Z,35.40
2019-04-05T10:41:19.006Z,35.60
2019-04-05T10:42:54.546Z,35.00
2019-04-05T10:44:30.101Z,35.00
2019-04-05T10:46:07.738Z,35.00
2019-04-05T10:47:43.265Z,35.40
2019-04-05T10:49:18.821Z,35.90
2019-04-05T10:50:55.318Z,36.00
2019-04-05T10:52:30.853Z,35.80
2019-04-05T10:54:09.436Z,35.50
2019-04-05T10:55:44.602Z,35.30
2019-04-05T10:57:20.455Z,35.20
2019-04-05T10:58:55.991Z,35.20
2019-04-05T11:00:31.518Z,35.40
2019-04-05T11:02:07.300Z,35.60
2019-04-05T11:03:42.847Z,35.70
2019-04-05T11:05:18.436Z,35.50
2019-04-05T11:06:53.973Z,35.30
2019-04-05T11:08:29.501Z,35.40
2019-04-05T11:10:07.923Z,35.40
2019-04-05T11:11:43.471Z,35.70
2019-04-05T11:13:19.017Z,36.00
2019-04-05T11:14:54.561Z,36.40
2019-04-05T11:16:30.113Z,36.20
2019-04-05T11:18:06.948Z,36.20
2019-04-05T11:19:42.488Z,36.70
2019-04-05T11:21:18.414Z,36.50
2019-04-05T11:22:54.456Z,36.90
2019-04-05T11:24:30.017Z,36.80
2019-04-05T11:26:07.167Z,36.60
2019-04-05T11:27:42.690Z,36.70
2019-04-05T11:29:18.338Z,36.60
2019-04-05T11:30:53.840Z,36.70
2019-04-05T11:32:29.429Z,37.00
2019-04-05T11:34:05.008Z,37.00
2019-04-05T11:35:40.963Z,37.40
2019-04-05T11:37:19.036Z,37.60
2019-04-05T11:38:54.273Z,37.60
2019-04-05T11:40:30.061Z,37.60
2019-04-05T11:42:06.972Z,37.70
2019-04-05T11:43:44.906Z,38.10
2019-04-05T11:45:20.713Z,38.20
2019-04-05T11:46:56.802Z,38.30
2019-04-05T11:48:33.231Z,38.40
2019-04-05T11:50:13.919Z,38.80
2019-04-05T11:51:49.632Z,39.60
2019-04-05T11:53:25.167Z,39.00
2019-04-05T11:55:00.692Z,39.00
2019-04-05T11:56:36.232Z,39.10
2019-04-05T11:58:11.839Z,39.20
2019-04-05T11:59:48.795Z,39.30
2019-04-05T12:01:35.114Z,39.40
2019-04-05T12:03:15.143Z,39.40
2019-04-05T12:04:50.764Z,39.10
2019-04-05T12:06:26.567Z,39.40
2019-04-05T12:08:02.220Z,39.40
2019-04-05T12:09:38.665Z,39.60
2019-04-05T12:11:14.209Z,39.80
2019-04-05T12:12:49.744Z,39.30
2019-04-05T12:14:30.479Z,39.30
2019-04-05T12:16:05.623Z,39.40
2019-04-05T12:17:39.770Z,39.20
2019-04-05T12:19:15.322Z,39.20
2019-04-05T12:20:59.656Z,39.30
2019-04-05T12:22:28.553Z,39.40
2019-04-05T12:24:04.093Z,39.80
2019-04-05T12:25:40.595Z,39.70
2019-04-05T12:27:16.116Z,39.40
2019-04-05T12:28:51.674Z,39.40
2019-04-05T12:30:27.956Z,39.00
2019-04-05T12:32:03.525Z,38.70
2019-04-05T12:33:39.037Z,38.90
2019-04-05T12:35:14.640Z,38.50
2019-04-05T12:36:50.583Z,38.60
2019-04-05T12:38:31.567Z,38.60
2019-04-05T12:40:14.816Z,38.20
2019-04-05T12:41:49.962Z,38.20
2019-04-05T12:43:25.516Z,38.00
2019-04-05T12:45:01.072Z,37.90
2019-04-05T12:46:37.586Z,38.20
2019-04-05T12:48:13.735Z,38.20
2019-04-05T12:49:50.714Z,38.40
2019-04-05T12:51:26.247Z,38.90
2019-04-05T12:53:01.809Z,39.20
2019-04-05T12:54:37.348Z,39.30
2019-04-05T12:56:12.864Z,39.60
2019-04-05T12:57:48.637Z,39.70
2019-04-05T12:59:25.529Z,39.70
2019-04-05T13:01:01.633Z,39.80
2019-04-05T13:02:37.160Z,40.10
2019-04-05T13:04:12.715Z,40.30
2019-04-05T13:05:51.176Z,40.40
2019-04-05T13:07:25.542Z,40.60
2019-04-05T13:09:01.097Z,40.70
2019-04-05T13:10:38.287Z,40.90
2019-04-05T13:12:13.899Z,40.90
2019-04-05T13:13:50.524Z,41.30
2019-04-05T13:15:26.045Z,41.10
2019-04-05T13:17:02.567Z,41.00
2019-04-05T13:18:38.316Z,40.90
2019-04-05T13:20:14.667Z,41.10
2019-04-05T13:21:50.169Z,41.10
2019-04-05T13:23:25.988Z,41.10
2019-04-05T13:25:01.522Z,41.10
2019-04-05T13:26:37.169Z,40.80
2019-04-05T13:28:18.093Z,40.80
2019-04-05T13:29:50.969Z,41.00
2019-04-05T13:31:26.508Z,40.90
2019-04-05T13:33:02.122Z,41.20
2019-04-05T13:34:37.653Z,41.40
2019-04-05T13:36:13.823Z,41.50
2019-04-05T13:37:49.383Z,41.40
2019-04-05T13:39:24.904Z,41.60
2019-04-05T13:41:01.593Z,41.60
2019-04-05T13:42:37.699Z,41.70
2019-04-05T13:44:13.234Z,41.70
2019-04-05T13:45:48.780Z,41.70
2019-04-05T13:47:24.588Z,41.60
2019-04-05T13:49:00.127Z,41.40
2019-04-05T13:50:35.681Z,41.50
2019-04-05T13:52:12.093Z,41.60
2019-04-05T13:53:48.231Z,41.70
2019-04-05T13:55:23.792Z,41.70
2019-04-05T13:56:59.364Z,41.90
2019-04-05T13:58:34.902Z,41.80
2019-04-05T14:00:12.210Z,41.70
2019-04-05T14:01:50.764Z,41.70
2019-04-05T14:03:25.014Z,41.80
2019-04-05T14:05:00.553Z,41.90
2019-04-05T14:06:36.095Z,42.00
2019-04-05T14:08:11.665Z,42.30
2019-04-05T14:09:47.188Z,42.50
2019-04-05T14:11:25.642Z,42.90
2019-04-05T14:12:59.960Z,43.20
2019-04-05T14:14:35.485Z,43.30
2019-04-05T14:16:12.511Z,43.20
2019-04-05T14:17:49.397Z,43.30
2019-04-05T14:19:25.269Z,43.30
2019-04-05T14:21:00.835Z,43.20
2019-04-05T14:22:37.973Z,43.20
2019-04-05T14:24:13.511Z,43.10
2019-04-05T14:25:49.028Z,43.40
2019-04-05T14:27:24.545Z,43.00
2019-04-05T14:29:03.483Z,42.80
2019-04-05T14:30:38.343Z,42.80
2019-04-05T14:32:21.313Z,43.20
2019-04-05T14:33:54.192Z,42.50
2019-04-05T14:35:28.353Z,42.50
2019-04-05T14:37:03.876Z,42.80
2019-04-05T14:38:39.429Z,42.80
2019-04-05T14:40:15.470Z,42.60
2019-04-05T14:41:51.002Z,42.40
2019-04-05T14:43:26.545Z,42.90
2019-04-05T14:45:02.082Z,42.40
2019-04-05T14:46:38.515Z,42.30
2019-04-05T14:48:15.108Z,42.60
2019-04-05T14:49:50.766Z,42.50
2019-04-05T14:51:26.602Z,42.40
2019-04-05T14:53:03.985Z,42.40
2019-04-05T14:54:39.528Z,42.40
2019-04-05T14:56:15.050Z,42.20
2019-04-05T14:57:50.633Z,42.10
2019-04-05T14:59:26.158Z,42.00
2019-04-05T15:01:01.683Z,42.00
2019-04-05T15:02:37.289Z,40.90
2019-04-05T15:04:12.851Z,40.70
2019-04-05T15:05:49.034Z,40.50
2019-04-05T15:07:24.609Z,40.60
2019-04-05T15:09:02.073Z,40.90
2019-04-05T15:10:38.854Z,41.00
2019-04-05T15:12:14.631Z,41.10
2019-04-05T15:13:50.170Z,41.20
2019-04-05T15:15:25.714Z,41.60
2019-04-05T15:17:01.269Z,41.90
2019-04-05T15:18:36.795Z,42.10
2019-04-05T15:20:13.457Z,42.20
2019-04-05T15:21:49.578Z,42.30
2019-04-05T15:23:25.119Z,42.50
2019-04-05T15:25:01.616Z,42.70
2019-04-05T15:26:37.223Z,42.60
2019-04-05T15:28:12.813Z,42.70
2019-04-05T15:29:48.381Z,42.80
2019-04-05T15:31:26.556Z,42.90
2019-04-05T15:33:02.800Z,43.30
2019-04-05T15:34:38.338Z,43.00
2019-04-05T15:36:13.879Z,43.20
2019-04-05T15:37:50.671Z,43.10
2019-04-05T15:39:26.197Z,43.10
2019-04-05T15:41:01.734Z,43.20
2019-04-05T15:42:37.349Z,43.40
2019-04-05T15:44:12.924Z,43.20
2019-04-05T15:45:48.433Z,43.30
2019-04-05T15:47:24.278Z,43.20
2019-04-05T15:48:59.826Z,43.40
2019-04-05T15:50:35.518Z,43.40
2019-04-05T15:52:18.747Z,43.40
2019-04-05T15:53:48.509Z,43.10
2019-04-05T15:55:24.059Z,42.90
2019-04-05T15:57:01.487Z,43.00
2019-04-05T15:58:36.820Z,42.90
2019-04-05T16:00:14.616Z,43.00
2019-04-05T16:01:50.314Z,43.10
2019-04-05T16:03:26.158Z,43.00
2019-04-05T16:05:01.967Z,42.90
2019-04-05T16:06:39.055Z,42.90
2019-04-05T16:08:17.779Z,43.10
2019-04-05T16:09:53.340Z,43.10
2019-04-05T16:11:28.929Z,43.00
2019-04-05T16:13:04.457Z,43.20
2019-04-05T16:14:40.313Z,43.20
2019-04-05T16:16:15.854Z,43.20
2019-04-05T16:17:52.535Z,43.40
2019-04-05T16:19:28.080Z,43.70
2019-04-05T16:21:03.639Z,43.70
2019-04-05T16:22:39.250Z,43.90
2019-04-05T16:24:14.788Z,44.00
2019-04-05T16:25:50.328Z,43.90
2019-04-05T16:27:26.824Z,44.00
2019-04-05T16:29:02.395Z,43.90
2019-04-05T16:30:39.718Z,43.80
2019-04-05T16:32:15.137Z,43.70
2019-04-05T16:33:50.752Z,43.70
2019-04-05T16:35:26.296Z,43.70
2019-04-05T16:37:01.849Z,43.90
2019-04-05T16:38:37.368Z,44.40
2019-04-05T16:40:13.885Z,44.60
2019-04-05T16:41:49.437Z,44.80
2019-04-05T16:43:25.048Z,45.00
2019-04-05T16:45:00.601Z,45.10
2019-04-05T16:46:36.148Z,45.20
2019-04-05T16:48:11.713Z,45.30
2019-04-05T16:49:47.256Z,45.50
2019-04-05T16:51:25.850Z,45.60
2019-04-05T16:53:01.405Z,45.70
2019-04-05T16:54:38.516Z,45.80
2019-04-05T16:56:14.074Z,45.90
2019-04-05T16:57:49.606Z,46.00
2019-04-05T16:59:25.157Z,46.00
2019-04-05T17:01:00.701Z,46.10
2019-04-05T17:02:37.386Z,46.10
2019-04-05T17:04:12.920Z,46.00
2019-04-05T17:05:48.457Z,45.80
2019-04-05T17:07:25.035Z,45.90
2019-04-05T17:09:00.570Z,46.00
2019-04-05T17:10:38.056Z,46.00
2019-04-05T17:12:13.611Z,46.20
2019-04-05T17:13:49.598Z,46.20
2019-04-05T17:15:25.653Z,46.30
2019-04-05T17:17:02.989Z,46.30
2019-04-05T17:18:38.580Z,46.50
2019-04-05T17:20:14.267Z,46.50
2019-04-05T17:21:49.862Z,46.60
2019-04-05T17:23:25.736Z,46.60
2019-04-05T17:25:01.613Z,46.70
2019-04-05T17:26:37.173Z,46.70
2019-04-05T17:28:12.703Z,47.80
2019-04-05T17:29:48.275Z,47.20
2019-04-05T17:31:24.081Z,47.40
2019-04-05T17:32:59.628Z,47.70
2019-04-05T17:34:36.735Z,47.60
2019-04-05T17:36:12.320Z,47.90
2019-04-05T17:37:47.891Z,47.90
2019-04-05T17:39:23.412Z,47.90
2019-04-05T17:40:58.948Z,48.60
2019-04-05T17:42:34.917Z,48.00
2019-04-05T17:44:10.758Z,48.20
2019-04-05T17:45:47.911Z,48.20
2019-04-05T17:47:23.477Z,48.30
2019-04-05T17:48:59.072Z,48.30
2019-04-05T17:50:35.355Z,48.40
2019-04-05T17:52:10.942Z,48.40
2019-04-05T17:53:46.445Z,48.40
2019-04-05T17:55:22.019Z,48.30
2019-04-05T17:56:58.015Z,48.30
2019-04-05T17:58:34.374Z,48.60
2019-04-05T18:00:11.940Z,48.70
2019-04-05T18:01:47.753Z,49.10
2019-04-05T18:03:23.313Z,49.10
2019-04-05T18:04:58.848Z,49.30
2019-04-05T18:06:34.387Z,49.20
2019-04-05T18:08:14.156Z,49.40
2019-04-05T18:09:51.271Z,49.40
2019-04-05T18:11:28.686Z,49.40
2019-04-05T18:13:07.169Z,49.40
2019-04-05T18:14:42.679Z,49.40
2019-04-05T18:16:18.211Z,50.20
2019-04-05T18:17:53.753Z,49.70
2019-04-05T18:19:29.696Z,49.80
2019-04-05T18:21:05.645Z,49.90
2019-04-05T18:22:41.187Z,49.90
2019-04-05T18:24:16.717Z,50.00
2019-04-05T18:25:52.595Z,50.10
2019-04-05T18:27:29.025Z,50.00
2019-04-05T18:29:04.549Z,50.10
2019-04-05T18:30:40.095Z,50.10
2019-04-05T18:32:15.616Z,50.20
2019-04-05T18:33:51.403Z,50.30
2019-04-05T18:35:26.955Z,49.80
2019-04-05T18:37:03.095Z,50.40
2019-04-05T18:38:38.914Z,50.30
2019-04-05T18:40:14.600Z,50.60
2019-04-05T18:41:50.140Z,50.60
2019-04-05T18:43:25.676Z,50.60
2019-04-05T18:45:01.238Z,50.70
2019-04-05T18:46:37.337Z,50.70
2019-04-05T18:48:12.901Z,50.80
2019-04-05T18:49:48.451Z,50.80
2019-04-05T18:51:26.797Z,51.00
2019-04-05T18:53:02.597Z,51.00
2019-04-05T18:54:39.663Z,51.00
2019-04-05T18:56:15.474Z,51.00
2019-04-05T18:57:51.043Z,51.10
2019-04-05T18:59:26.613Z,51.10
2019-04-05T19:01:02.407Z,51.00
2019-04-05T19:02:37.947Z,51.10
2019-04-05T19:04:13.762Z,51.10
2019-04-05T19:05:50.143Z,51.20
2019-04-05T19:07:25.746Z,51.10
2019-04-05T19:09:01.533Z,51.10
2019-04-05T19:10:39.110Z,51.10
2019-04-05T19:12:15.710Z,51.20
2019-04-05T19:14:00.969Z,51.30
2019-04-05T19:15:29.964Z,51.40
2019-04-05T19:17:05.855Z,51.40
2019-04-05T19:18:41.373Z,51.60
2019-04-05T19:20:17.036Z,51.50
2019-04-05T19:21:52.562Z,51.50
2019-04-05T19:23:28.480Z,51.70
2019-04-05T19:25:07.292Z,51.90
2019-04-05T19:26:42.845Z,52.00
2019-04-05T19:28:20.095Z,51.70
2019-04-05T19:29:55.652Z,52.30
2019-04-05T19:49:25.325Z,53.60
2019-04-05T19:51:00.888Z,53.90
2019-04-05T19:52:36.416Z,53.80
2019-04-05T19:54:11.937Z,53.90
2019-04-05T19:55:47.582Z,53.90
2019-04-05T19:57:23.160Z,54.00
2019-04-05T19:58:58.703Z,54.20
2019-04-05T20:00:35.340Z,54.20
2019-04-05T20:02:10.918Z,54.30
2019-04-05T20:03:46.449Z,54.30
2019-04-05T20:05:22.296Z,54.30
2019-04-05T20:06:58.648Z,54.30
2019-04-05T20:08:34.624Z,54.40
2019-04-05T20:10:10.760Z,54.50
2019-04-05T20:11:46.689Z,54.60
2019-04-05T20:13:22.557Z,54.60
2019-04-05T20:14:58.099Z,54.70
2019-04-05T20:16:34.713Z,54.90
2019-04-05T20:18:10.258Z,54.80
2019-04-05T20:19:46.168Z,54.90
2019-04-05T20:21:21.970Z,55.20
2019-04-05T20:22:57.537Z,55.10
2019-04-05T20:24:33.086Z,55.10
2019-04-05T20:26:08.637Z,55.20
2019-04-05T20:27:44.442Z,55.20
2019-04-05T20:29:21.713Z,55.30
2019-04-05T20:30:57.468Z,55.40
2019-04-05T20:32:33.025Z,55.60
2019-04-05T20:34:08.550Z,55.60
2019-04-05T20:35:44.086Z,55.60
2019-04-05T20:37:19.614Z,55.60
2019-04-05T20:38:55.155Z,55.70
2019-04-05T20:40:30.694Z,56.00
2019-04-05T20:42:06.399Z,55.90
2019-04-05T20:43:41.924Z,56.00
2019-04-05T20:45:17.481Z,56.00
2019-04-05T20:46:53.115Z,56.00
2019-04-05T20:48:28.634Z,56.20
2019-04-05T20:50:06.165Z,56.30
2019-04-05T20:51:41.720Z,56.40
2019-04-05T20:53:17.247Z,56.60
2019-04-05T20:54:52.824Z,56.60
2019-04-05T20:56:28.380Z,56.70